<?xml version='1.0' encoding='UTF-8'?><gpx version="1.1" creator="JPX - https://github.com/jenetics/jpx" xmlns="http://www.topografix.com/GPX/1/1"><trk><trkseg><trkpt lat="48.775373962373884" lon="20.407842873878913"><ele>390.0</ele><time>2026-04-20T11:23:03.999Z</time></trkpt><trkpt lat="48.77536752736455" lon="20.407976209261157"><ele>390.0</ele><time>2026-04-20T11:23:06.999Z</time></trkpt><trkpt lat="48.775427788122514" lon="20.408184431035707"><ele>390.0</ele><time>2026-04-20T11:23:07.999Z</time></trkpt><trkpt lat="48.77545644574654" lon="20.408327895565147"><ele>390.0</ele><time>2026-04-20T11:23:08.999Z</time></trkpt><trkpt lat="48.77549213316705" lon="20.40848099898554"><ele>390.0</ele><time>2026-04-20T11:23:09.999Z</time></trkpt><trkpt lat="48.77556402008848" lon="20.408601477389997"><ele>390.5</ele><time>2026-04-20T11:23:10.999Z</time></trkpt><trkpt lat="48.775587323891195" lon="20.408726313670766"><ele>391.0</ele><time>2026-04-20T11:23:11.999Z</time></trkpt><trkpt lat="48.775593354504075" lon="20.40883032480571"><ele>391.5</ele><time>2026-04-20T11:23:12.999Z</time></trkpt><trkpt lat="48.77550662691975" lon="20.408888017983163"><ele>392.0</ele><time>2026-04-20T11:23:14.999Z</time></trkpt><trkpt lat="48.77543245778934" lon="20.408894305709705"><ele>392.5</ele><time>2026-04-20T11:23:15.999Z</time></trkpt><trkpt lat="48.77533213405525" lon="20.40892379921225"><ele>393.0</ele><time>2026-04-20T11:23:16.999Z</time></trkpt><trkpt lat="48.775214773454955" lon="20.408968952339702"><ele>393.1666666666667</ele><time>2026-04-20T11:23:17.999Z</time></trkpt><trkpt lat="48.77512450260763" lon="20.409004963651387"><ele>393.33333333333337</ele><time>2026-04-20T11:23:18.999Z</time></trkpt><trkpt lat="48.77505772287115" lon="20.409064032294868"><ele>393.5</ele><time>2026-04-20T11:23:19.999Z</time></trkpt><trkpt lat="48.77500955083188" lon="20.409135001375414"><ele>393.6666666666667</ele><time>2026-04-20T11:23:20.999Z</time></trkpt><trkpt lat="48.77505849714927" lon="20.409254324935716"><ele>393.83333333333337</ele><time>2026-04-20T11:23:22.999Z</time></trkpt><trkpt lat="48.77512260953323" lon="20.40921353356613"><ele>394.0</ele><time>2026-04-20T11:23:23.999Z</time></trkpt><trkpt lat="48.77525455941038" lon="20.409198649296382"><ele>396.0</ele><time>2026-04-20T11:23:25.999Z</time></trkpt><trkpt lat="48.77533592020476" lon="20.409166509320443"><ele>398.0</ele><time>2026-04-20T11:23:26.999Z</time></trkpt><trkpt lat="48.775454112591326" lon="20.40909566667755"><ele>400.0</ele><time>2026-04-20T11:23:27.999Z</time></trkpt><trkpt lat="48.775529626959596" lon="20.409025743136812"><ele>402.0</ele><time>2026-04-20T11:23:28.999Z</time></trkpt><trkpt lat="48.77567102726458" lon="20.409204553008266"><ele>397.5</ele><time>2026-04-20T11:23:29.999Z</time></trkpt><trkpt lat="48.775672345366104" lon="20.408644921372506"><ele>393.0</ele><time>2026-04-20T11:23:33.999Z</time></trkpt><trkpt lat="48.77565270673376" lon="20.40852563462397"><ele>393.0</ele><time>2026-04-20T11:23:34.999Z</time></trkpt><trkpt lat="48.77559591140512" lon="20.408384381495328"><ele>393.0</ele><time>2026-04-20T11:23:35.999Z</time></trkpt><trkpt lat="48.77556818764672" lon="20.408264742090356"><ele>393.0</ele><time>2026-04-20T11:23:36.999Z</time></trkpt><trkpt lat="48.77554409354011" lon="20.408172525731942"><ele>393.0</ele><time>2026-04-20T11:23:37.999Z</time></trkpt><trkpt lat="48.77549466764238" lon="20.40807088854599"><ele>393.0</ele><time>2026-04-20T11:23:38.999Z</time></trkpt><trkpt lat="48.77546207683096" lon="20.407976928495184"><ele>393.0</ele><time>2026-04-20T11:23:39.999Z</time></trkpt><trkpt lat="48.77544548179661" lon="20.40787780472183"><ele>393.0</ele><time>2026-04-20T11:23:40.999Z</time></trkpt><trkpt lat="48.77555595759485" lon="20.40789631567764"><ele>393.0</ele><time>2026-04-20T11:23:42.999Z</time></trkpt><trkpt lat="48.77559992040658" lon="20.40799351362433"><ele>393.0</ele><time>2026-04-20T11:23:43.999Z</time></trkpt><trkpt lat="48.77563926188338" lon="20.40812049072679"><ele>393.0</ele><time>2026-04-20T11:23:44.999Z</time></trkpt><trkpt lat="48.77567346293255" lon="20.40824607552639"><ele>393.0</ele><time>2026-04-20T11:23:45.999Z</time></trkpt><trkpt lat="48.77571505774052" lon="20.40837492171254"><ele>393.0</ele><time>2026-04-20T11:23:46.999Z</time></trkpt><trkpt lat="48.7757594605558" lon="20.40850797465672"><ele>393.0</ele><time>2026-04-20T11:23:47.999Z</time></trkpt><trkpt lat="48.77577006820186" lon="20.40863914834856"><ele>393.0</ele><time>2026-04-20T11:23:48.999Z</time></trkpt><trkpt lat="48.77577631657996" lon="20.408747925878483"><ele>393.0</ele><time>2026-04-20T11:23:49.999Z</time></trkpt><trkpt lat="48.775815204105164" lon="20.408828060005042"><ele>393.0</ele><time>2026-04-20T11:23:50.999Z</time></trkpt><trkpt lat="48.77591525513317" lon="20.40881203072008"><ele>393.0</ele><time>2026-04-20T11:23:52.999Z</time></trkpt><trkpt lat="48.775957745300246" lon="20.40870734478866"><ele>393.0</ele><time>2026-04-20T11:23:53.999Z</time></trkpt><trkpt lat="48.77598108975239" lon="20.408616881639407"><ele>393.0</ele><time>2026-04-20T11:23:54.999Z</time></trkpt><trkpt lat="48.775962873483685" lon="20.408518386791545"><ele>393.0</ele><time>2026-04-20T11:23:55.999Z</time></trkpt><trkpt lat="48.77589847617928" lon="20.40834992851238"><ele>393.0</ele><time>2026-04-20T11:23:57.998Z</time></trkpt><trkpt lat="48.77582878588837" lon="20.408284923276902"><ele>393.0</ele><time>2026-04-20T11:23:58.998Z</time></trkpt><trkpt lat="48.77577132115505" lon="20.40820559552836"><ele>393.0</ele><time>2026-04-20T11:23:59.998Z</time></trkpt><trkpt lat="48.77583584739126" lon="20.408100849674447"><ele>393.0</ele><time>2026-04-20T11:24:01.998Z</time></trkpt><trkpt lat="48.77588796526667" lon="20.408165204045677"><ele>393.0</ele><time>2026-04-20T11:24:02.998Z</time></trkpt><trkpt lat="48.7759437038315" lon="20.408294889384766"><ele>393.0</ele><time>2026-04-20T11:24:03.998Z</time></trkpt><trkpt lat="48.77602942256646" lon="20.408425199307374"><ele>393.0</ele><time>2026-04-20T11:24:05.998Z</time></trkpt><trkpt lat="48.776121162293705" lon="20.408507811536367"><ele>393.0</ele><time>2026-04-20T11:24:06.998Z</time></trkpt><trkpt lat="48.77619227693708" lon="20.40855597209731"><ele>393.79999999999995</ele><time>2026-04-20T11:24:07.998Z</time></trkpt><trkpt lat="48.776275261715035" lon="20.408587116186474"><ele>394.6</ele><time>2026-04-20T11:24:08.998Z</time></trkpt><trkpt lat="48.776362578303434" lon="20.408595587621505"><ele>395.4</ele><time>2026-04-20T11:24:09.998Z</time></trkpt><trkpt lat="48.77644737583081" lon="20.408555706954576"><ele>396.20000000000005</ele><time>2026-04-20T11:24:10.998Z</time></trkpt><trkpt lat="48.77656372006173" lon="20.40872540787952"><ele>397.0</ele><time>2026-04-20T11:24:11.998Z</time></trkpt><trkpt lat="48.776675158413966" lon="20.40869238454791"><ele>397.0</ele><time>2026-04-20T11:24:13.998Z</time></trkpt><trkpt lat="48.776808491880836" lon="20.40866076624839"><ele>397.0</ele><time>2026-04-20T11:24:15.998Z</time></trkpt><trkpt lat="48.77690083085721" lon="20.408641263847272"><ele>397.0</ele><time>2026-04-20T11:24:16.998Z</time></trkpt><trkpt lat="48.776988350791214" lon="20.408623082099254"><ele>397.0</ele><time>2026-04-20T11:24:18.998Z</time></trkpt><trkpt lat="48.77692106173507" lon="20.408599376648883"><ele>397.0</ele><time>2026-04-20T11:24:20.998Z</time></trkpt><trkpt lat="48.77672608509613" lon="20.408243353963215"><ele>397.00000000000006</ele><time>2026-04-20T11:24:22.998Z</time></trkpt><trkpt lat="48.77663474116419" lon="20.408261840543865"><ele>397.0</ele><time>2026-04-20T11:24:23.998Z</time></trkpt><trkpt lat="48.77655679374106" lon="20.408256485944865"><ele>397.0</ele><time>2026-04-20T11:24:24.998Z</time></trkpt><trkpt lat="48.776476443736314" lon="20.408261002515452"><ele>397.0</ele><time>2026-04-20T11:24:25.998Z</time></trkpt><trkpt lat="48.77639280943437" lon="20.40826169549571"><ele>397.00000000000006</ele><time>2026-04-20T11:24:27Z</time></trkpt><trkpt lat="48.77628178259759" lon="20.4082656703759"><ele>397.0</ele><time>2026-04-20T11:24:28Z</time></trkpt><trkpt lat="48.77618630092779" lon="20.408276615435682"><ele>397.0</ele><time>2026-04-20T11:24:29Z</time></trkpt><trkpt lat="48.77611286544081" lon="20.408303133580528"><ele>397.0</ele><time>2026-04-20T11:24:30Z</time></trkpt><trkpt lat="48.77603764191722" lon="20.408315878710003"><ele>397.0</ele><time>2026-04-20T11:24:31Z</time></trkpt><trkpt lat="48.77596784296389" lon="20.408213795684706"><ele>397.0</ele><time>2026-04-20T11:24:33Z</time></trkpt><trkpt lat="48.77606234002927" lon="20.408119981106896"><ele>397.0</ele><time>2026-04-20T11:24:35Z</time></trkpt><trkpt lat="48.776156766187015" lon="20.408152794313818"><ele>397.0</ele><time>2026-04-20T11:24:37Z</time></trkpt><trkpt lat="48.77623890237142" lon="20.408164716419684"><ele>397.0</ele><time>2026-04-20T11:24:38Z</time></trkpt><trkpt lat="48.77635248840471" lon="20.40815593682886"><ele>397.0</ele><time>2026-04-20T11:24:39Z</time></trkpt><trkpt lat="48.77646903426359" lon="20.408122092360202"><ele>397.0</ele><time>2026-04-20T11:24:40Z</time></trkpt><trkpt lat="48.7765563439862" lon="20.408110578928238"><ele>397.0</ele><time>2026-04-20T11:24:41Z</time></trkpt><trkpt lat="48.77653085183009" lon="20.40801417411313"><ele>396.20000000000005</ele><time>2026-04-20T11:24:43Z</time></trkpt><trkpt lat="48.776455315846235" lon="20.40795462313444"><ele>395.4</ele><time>2026-04-20T11:24:46Z</time></trkpt><trkpt lat="48.77637214838879" lon="20.407943548964123"><ele>394.6</ele><time>2026-04-20T11:24:48Z</time></trkpt><trkpt lat="48.77630234893424" lon="20.407949397659046"><ele>393.79999999999995</ele><time>2026-04-20T11:24:50Z</time></trkpt><trkpt lat="48.77620043027103" lon="20.40786523605175"><ele>393.0</ele><time>2026-04-20T11:24:52Z</time></trkpt><trkpt lat="48.77610677913357" lon="20.407897469382597"><ele>390.0</ele><time>2026-04-20T11:24:54Z</time></trkpt><trkpt lat="48.775597276979035" lon="20.40778144563719"><ele>390.0</ele><time>2026-04-20T11:24:56Z</time></trkpt><trkpt lat="48.77552255842463" lon="20.407839147217647"><ele>390.0</ele><time>2026-04-20T11:24:57Z</time></trkpt><trkpt lat="48.77542402382534" lon="20.407816704337804"><ele>390.0</ele><time>2026-04-20T11:24:58Z</time></trkpt><trkpt lat="48.775355833783934" lon="20.40778696715424"><ele>390.0</ele><time>2026-04-20T11:24:59Z</time></trkpt></trkseg></trk></gpx>